createdAt,value
2018-03-18T00:00:42.573Z,14.20
2018-03-18T00:03:09.207Z,14.14
2018-03-18T00:05:35.678Z,14.51
2018-03-18T00:08:02.867Z,14.45
2018-03-18T00:10:29.579Z,14.25
2018-03-18T00:12:56.167Z,14.15
2018-03-18T00:15:22.604Z,14.11
2018-03-18T00:17:49.229Z,14.17
2018-03-18T00:20:15.724Z,14.19
2018-03-18T00:22:42.145Z,14.22
2018-03-18T00:25:08.996Z,14.33
2018-03-18T00:27:35.353Z,14.43
2018-03-18T00:30:01.907Z,14.40
2018-03-18T00:32:28.336Z,14.38
2018-03-18T00:34:55.632Z,14.28
2018-03-18T00:37:22.216Z,14.46
2018-03-18T00:39:48.647Z,14.47
2018-03-18T00:42:15.082Z,14.28
2018-03-18T00:44:41.519Z,14.30
2018-03-18T00:47:08.096Z,14.44
2018-03-18T00:49:34.439Z,14.50
2018-03-18T00:52:01.029Z,14.39
2018-03-18T00:54:27.469Z,14.38
2018-03-18T00:56:54.073Z,14.43
2018-03-18T00:59:20.466Z,14.44
2018-03-18T01:01:47.004Z,14.65
2018-03-18T01:04:13.389Z,14.52
2018-03-18T01:06:39.804Z,14.44
2018-03-18T01:09:06.219Z,14.40
2018-03-18T01:11:32.682Z,14.69
2018-03-18T01:13:59.182Z,14.44
2018-03-18T01:16:25.583Z,14.32
2018-03-18T01:18:52.143Z,14.56
2018-03-18T01:21:18.706Z,14.56
2018-03-18T01:23:45.067Z,14.51
2018-03-18T01:26:11.466Z,14.41
2018-03-18T01:28:37.855Z,14.59
2018-03-18T01:31:04.365Z,14.50
2018-03-18T01:33:30.982Z,14.52
2018-03-18T01:35:57.410Z,14.41
2018-03-18T01:38:23.925Z,14.47
2018-03-18T01:40:50.287Z,14.48
2018-03-18T01:43:19.393Z,14.47
2018-03-18T01:45:48.904Z,14.49
2018-03-18T01:48:17.847Z,14.52
2018-03-18T01:50:47.465Z,14.58
2018-03-18T01:53:23.221Z,14.55
2018-03-18T01:55:53.642Z,14.58
2018-03-18T01:58:21.663Z,14.57
2018-03-18T02:00:50.231Z,14.47
2018-03-18T02:03:20.562Z,14.49
2018-03-18T02:05:49.105Z,14.78
2018-03-18T02:08:16.413Z,14.67
2018-03-18T02:10:45.769Z,14.55
2018-03-18T02:13:13.825Z,14.67
2018-03-18T02:15:42.529Z,14.45
2018-03-18T02:18:12.186Z,14.41
2018-03-18T02:20:42.875Z,14.39
2018-03-18T02:23:10.433Z,14.45
2018-03-18T02:25:37.365Z,14.72
2018-03-18T02:28:03.717Z,14.70
2018-03-18T02:30:30.022Z,14.77
2018-03-18T02:32:56.475Z,14.84
2018-03-18T02:35:22.844Z,14.89
2018-03-18T02:37:49.185Z,14.70
2018-03-18T02:40:15.531Z,14.74
2018-03-18T02:42:41.845Z,14.75
2018-03-18T02:45:08.156Z,14.78
2018-03-18T02:47:34.521Z,14.59
2018-03-18T02:50:00.892Z,14.62
2018-03-18T02:52:27.605Z,14.74
2018-03-18T02:54:53.986Z,14.64
2018-03-18T02:57:20.327Z,14.68
2018-03-18T02:59:46.706Z,14.62
2018-03-18T03:02:13.410Z,14.53
2018-03-18T03:04:40.127Z,14.89
2018-03-18T03:07:06.507Z,14.86
2018-03-18T03:09:32.866Z,14.74
2018-03-18T03:11:59.330Z,14.92
2018-03-18T03:14:25.676Z,14.99
2018-03-18T03:16:52.028Z,14.90
2018-03-18T03:19:18.384Z,14.91
2018-03-18T03:21:44.937Z,15.04
2018-03-18T03:24:11.245Z,15.05
2018-03-18T03:26:37.775Z,15.22
2018-03-18T03:29:04.130Z,15.05
2018-03-18T03:31:30.599Z,15.06
2018-03-18T03:33:56.957Z,15.02
2018-03-18T03:36:23.278Z,15.15
2018-03-18T03:38:49.642Z,14.96
2018-03-18T03:41:16.036Z,14.93
2018-03-18T03:43:42.393Z,15.13
2018-03-18T03:46:08.743Z,15.21
2018-03-18T03:48:35.095Z,15.13
2018-03-18T03:51:01.432Z,15.02
2018-03-18T03:53:28.489Z,15.06
2018-03-18T03:55:54.874Z,15.07
2018-03-18T03:58:21.186Z,14.78
2018-03-18T04:00:47.490Z,15.03
2018-03-18T04:03:14.059Z,15.01
2018-03-18T04:05:40.496Z,15.12
2018-03-18T04:08:06.900Z,15.05
2018-03-18T04:10:33.315Z,15.06
2018-03-18T04:12:59.737Z,14.81
2018-03-18T04:15:26.134Z,14.93
2018-03-18T04:17:52.590Z,14.89
2018-03-18T04:20:18.941Z,15.00
2018-03-18T04:22:45.340Z,15.12
2018-03-18T04:25:11.719Z,14.88
2018-03-18T04:27:38.095Z,15.06
2018-03-18T04:30:04.484Z,14.99
2018-03-18T04:32:30.939Z,14.70
2018-03-18T04:34:57.349Z,14.68
2018-03-18T04:37:23.980Z,14.82
2018-03-18T04:39:50.354Z,14.53
2018-03-18T04:42:16.717Z,14.44
2018-03-18T04:44:43.167Z,14.45
2018-03-18T04:47:09.597Z,14.28
2018-03-18T04:49:36.001Z,14.27
2018-03-18T04:52:02.447Z,14.38
2018-03-18T04:54:28.822Z,14.58
2018-03-18T04:56:55.193Z,14.62
2018-03-18T04:59:21.503Z,14.59
2018-03-18T05:01:47.900Z,14.37
2018-03-18T05:04:14.214Z,14.50
2018-03-18T05:06:40.538Z,14.34
2018-03-18T05:09:06.969Z,14.24
2018-03-18T05:11:33.357Z,14.25
2018-03-18T05:13:59.749Z,14.13
2018-03-18T05:16:26.126Z,14.38
2018-03-18T05:18:52.642Z,14.38
2018-03-18T05:21:19.468Z,14.25
2018-03-18T05:23:45.996Z,13.86
2018-03-18T05:26:12.393Z,13.92
2018-03-18T05:28:38.764Z,13.85
2018-03-18T05:31:05.184Z,14.05
2018-03-18T05:33:31.549Z,13.83
2018-03-18T05:35:57.923Z,13.72
2018-03-18T05:38:24.390Z,13.79
2018-03-18T05:40:50.768Z,13.57
2018-03-18T05:43:17.164Z,13.42
2018-03-18T05:45:43.581Z,13.67
2018-03-18T05:48:09.974Z,13.46
2018-03-18T05:50:36.312Z,13.60
2018-03-18T05:53:02.749Z,13.64
2018-03-18T05:55:29.047Z,13.59
2018-03-18T05:57:55.388Z,13.52
2018-03-18T06:00:22.370Z,13.41
2018-03-18T06:02:48.832Z,13.21
2018-03-18T06:05:15.181Z,13.10
2018-03-18T06:07:41.538Z,12.93
2018-03-18T06:10:08.778Z,12.78
2018-03-18T06:12:35.206Z,12.66
2018-03-18T06:15:01.693Z,12.60
2018-03-18T06:17:28.058Z,12.37
2018-03-18T06:19:54.461Z,12.20
2018-03-18T06:22:20.881Z,12.15
2018-03-18T06:24:47.229Z,12.16
2018-03-18T06:27:14.499Z,12.08
2018-03-18T06:29:41.298Z,11.90
2018-03-18T06:32:08.372Z,11.76
2018-03-18T06:34:34.807Z,11.72
2018-03-18T06:37:01.260Z,11.65
2018-03-18T06:39:27.637Z,11.54
2018-03-18T06:41:54.150Z,11.54
2018-03-18T06:44:20.624Z,11.64
2018-03-18T06:46:47.022Z,11.52
2018-03-18T06:49:13.462Z,11.46
2018-03-18T06:51:39.920Z,11.46
2018-03-18T06:54:06.310Z,11.43
2018-03-18T06:56:32.797Z,11.44
2018-03-18T06:58:59.243Z,11.47
2018-03-18T07:01:25.762Z,11.40
2018-03-18T07:03:52.415Z,11.44
2018-03-18T07:06:19.236Z,11.36
2018-03-18T07:08:45.612Z,11.23
2018-03-18T07:11:11.983Z,11.33
2018-03-18T07:13:38.453Z,11.22
2018-03-18T07:16:05.742Z,11.23
2018-03-18T07:18:32.112Z,11.17
2018-03-18T07:20:58.462Z,11.16
2018-03-18T07:23:25.047Z,11.05
2018-03-18T07:25:52.094Z,11.12
2018-03-18T07:28:19.529Z,10.95
2018-03-18T07:30:46.293Z,10.81
2018-03-18T07:33:13.239Z,10.84
2018-03-18T07:35:40.084Z,10.83
2018-03-18T07:38:06.791Z,10.84
2018-03-18T07:40:33.436Z,10.81
2018-03-18T07:43:02.192Z,10.87
2018-03-18T07:45:28.762Z,10.79
2018-03-18T07:47:55.408Z,10.83
2018-03-18T07:50:22.501Z,10.72
2018-03-18T07:52:49.089Z,10.71
2018-03-18T07:55:15.602Z,10.86
2018-03-18T07:57:42.918Z,10.82
2018-03-18T08:00:09.764Z,10.66
2018-03-18T08:02:37.343Z,10.57
2018-03-18T08:05:03.840Z,10.70
2018-03-18T08:07:31.338Z,10.59
2018-03-18T08:09:57.821Z,10.57
2018-03-18T08:12:24.441Z,10.67
2018-03-18T08:14:51.550Z,10.56
2018-03-18T08:17:18.127Z,10.57
2018-03-18T08:19:44.686Z,10.71
2018-03-18T08:22:14.958Z,10.66
2018-03-18T08:24:41.785Z,10.72
2018-03-18T08:27:08.486Z,10.61
2018-03-18T08:29:35.430Z,10.56
2018-03-18T08:32:02.718Z,10.55
2018-03-18T08:34:29.919Z,10.51
2018-03-18T08:36:56.488Z,10.54
2018-03-18T08:39:23.880Z,10.68
2018-03-18T08:41:50.721Z,10.57
2018-03-18T08:44:18.923Z,10.54
2018-03-18T08:46:45.800Z,10.52
2018-03-18T08:49:12.383Z,10.38
2018-03-18T08:51:39.641Z,10.34
2018-03-18T08:54:08.544Z,10.49
2018-03-18T08:56:35.956Z,10.60
2018-03-18T08:59:03.700Z,10.69
2018-03-18T09:01:30.269Z,10.71
2018-03-18T09:03:57.190Z,10.87
2018-03-18T09:06:23.826Z,10.94
2018-03-18T09:08:50.335Z,10.88
2018-03-18T09:11:16.903Z,10.88
2018-03-18T09:13:43.670Z,10.87
2018-03-18T09:16:10.727Z,10.87
2018-03-18T09:18:37.722Z,10.82
2018-03-18T09:21:04.361Z,10.94
2018-03-18T09:23:30.971Z,10.84
2018-03-18T09:25:57.637Z,11.05
2018-03-18T09:28:24.220Z,11.08
2018-03-18T09:30:50.854Z,11.10
2018-03-18T09:33:17.371Z,11.18
2018-03-18T09:35:43.899Z,11.05
2018-03-18T09:38:10.591Z,11.08
2018-03-18T09:40:37.448Z,11.13
2018-03-18T09:43:04.145Z,11.06
2018-03-18T09:45:30.749Z,11.14
2018-03-18T09:47:57.466Z,11.08
2018-03-18T09:50:24.044Z,11.07
2018-03-18T09:52:50.663Z,11.13
2018-03-18T09:55:17.403Z,11.15
2018-03-18T09:57:44.172Z,11.11
2018-03-18T10:00:10.765Z,11.23
2018-03-18T10:02:37.811Z,11.17
2018-03-18T10:05:05.019Z,11.09
2018-03-18T10:07:31.588Z,11.20
2018-03-18T10:09:58.080Z,11.20
2018-03-18T10:12:24.811Z,11.17
2018-03-18T10:14:51.363Z,11.17
2018-03-18T10:17:17.885Z,11.17
2018-03-18T10:19:44.668Z,11.23
2018-03-18T10:22:11.616Z,11.22
2018-03-18T10:24:40.332Z,11.19
2018-03-18T10:27:06.865Z,11.27
2018-03-18T10:29:33.672Z,11.18
2018-03-18T10:32:00.229Z,11.23
2018-03-18T10:34:26.828Z,11.21
2018-03-18T10:36:53.865Z,11.26
2018-03-18T10:39:20.433Z,11.27
2018-03-18T10:41:46.973Z,11.20
2018-03-18T10:44:13.856Z,10.90
2018-03-18T10:46:40.508Z,10.85
2018-03-18T10:51:41.954Z,10.64
2018-03-18T10:54:08.569Z,10.64
2018-03-18T10:56:35.245Z,10.63
2018-03-18T10:59:01.962Z,10.64
2018-03-18T11:01:33.844Z,10.66
2018-03-18T11:04:06.784Z,10.69
2018-03-18T11:06:33.377Z,10.83
2018-03-18T11:09:00.965Z,10.77
2018-03-18T11:11:27.787Z,10.70
2018-03-18T11:13:54.773Z,10.78
2018-03-18T11:16:21.880Z,10.69
2018-03-18T11:18:48.529Z,10.78
2018-03-18T11:21:15.114Z,10.85
2018-03-18T11:23:42.206Z,10.95
2018-03-18T11:26:09.112Z,11.18
2018-03-18T11:28:35.786Z,11.35
2018-03-18T11:31:02.585Z,11.39
2018-03-18T11:33:30.467Z,11.47
2018-03-18T11:35:57.126Z,11.47
2018-03-18T11:38:23.885Z,11.46
2018-03-18T11:40:50.847Z,11.45
2018-03-18T11:43:17.657Z,11.34
2018-03-18T11:45:44.525Z,11.37
2018-03-18T11:48:11.577Z,11.59
2018-03-18T11:50:39.234Z,11.73
2018-03-18T11:53:06.082Z,11.79
2018-03-18T11:55:32.765Z,12.00
2018-03-18T11:57:59.275Z,12.01
2018-03-18T12:00:26.010Z,12.08
2018-03-18T12:02:53.244Z,11.86
2018-03-18T12:05:19.991Z,11.79
2018-03-18T12:07:46.662Z,11.64
2018-03-18T12:10:13.375Z,11.57
2018-03-18T12:12:41.151Z,11.39
2018-03-18T12:15:07.849Z,11.29
2018-03-18T12:17:34.725Z,11.42
2018-03-18T12:20:01.183Z,11.43
2018-03-18T12:22:27.880Z,11.37
2018-03-18T12:24:54.745Z,11.72
2018-03-18T12:27:21.240Z,12.24
2018-03-18T12:29:48.045Z,12.56
2018-03-18T12:32:14.938Z,12.83
2018-03-18T12:34:43.184Z,13.25
2018-03-18T12:37:10.145Z,13.68
2018-03-18T12:39:49.159Z,14.16
2018-03-18T12:42:27.959Z,14.18
2018-03-18T12:44:55.497Z,14.17
2018-03-18T12:47:22.567Z,13.94
2018-03-18T12:49:49.304Z,14.04
2018-03-18T12:52:16.251Z,14.24
2018-03-18T12:54:43.930Z,14.17
2018-03-18T12:57:10.984Z,14.43
2018-03-18T12:59:40.629Z,14.17
2018-03-18T13:02:11.553Z,14.06
2018-03-18T13:04:39.838Z,13.94
2018-03-18T13:07:06.954Z,13.80
2018-03-18T13:09:34.254Z,13.58
2018-03-18T13:12:01.362Z,13.32
2018-03-18T13:14:28.108Z,13.01
2018-03-18T13:16:55.363Z,12.83
2018-03-18T13:19:22.611Z,12.81
2018-03-18T13:21:49.759Z,12.60
2018-03-18T13:24:17.030Z,12.68
2018-03-18T13:26:45.294Z,12.46
2018-03-18T13:29:12.859Z,12.42
2018-03-18T13:31:39.716Z,12.41
2018-03-18T13:34:06.842Z,12.46
2018-03-18T13:36:33.892Z,12.57
2018-03-18T13:39:02.195Z,12.53
2018-03-18T13:41:29.707Z,12.78
2018-03-18T13:43:57.015Z,12.74
2018-03-18T13:46:24.436Z,12.64
2018-03-18T13:48:51.685Z,12.71
2018-03-18T13:51:20.153Z,12.74
2018-03-18T13:53:47.529Z,13.13
2018-03-18T13:56:14.604Z,13.35
2018-03-18T13:58:41.827Z,13.13
2018-03-18T14:01:09.206Z,12.95
2018-03-18T14:03:36.146Z,12.74
2018-03-18T14:06:03.771Z,12.75
2018-03-18T14:08:30.941Z,12.61
2018-03-18T14:10:59.690Z,12.58
2018-03-18T14:13:27.376Z,12.51
2018-03-18T14:15:56.194Z,12.23
2018-03-18T14:18:23.999Z,11.93
2018-03-18T14:20:51.214Z,12.19
2018-03-18T14:23:18.040Z,12.42
2018-03-18T14:25:45.630Z,12.54
2018-03-18T14:28:13.478Z,12.44
2018-03-18T14:30:40.728Z,12.50
2018-03-18T14:33:08.350Z,12.25
2018-03-18T14:35:37.083Z,12.26
2018-03-18T14:38:05.051Z,12.18
2018-03-18T14:40:32.499Z,12.04
2018-03-18T14:43:00.048Z,12.03
2018-03-18T14:45:27.970Z,11.85
2018-03-18T14:47:55.643Z,11.70
2018-03-18T14:50:23.669Z,11.62
2018-03-18T14:52:51.752Z,11.45
2018-03-18T14:55:18.692Z,11.36
2018-03-18T14:57:45.933Z,11.36
2018-03-18T15:00:13.119Z,11.32
2018-03-18T15:02:40.238Z,11.26
2018-03-18T15:05:08.124Z,11.44
2018-03-18T15:07:35.370Z,11.31
2018-03-18T15:10:01.972Z,11.42
2018-03-18T15:12:28.615Z,11.52
2018-03-18T15:14:55.373Z,11.49
2018-03-18T15:17:22.135Z,11.65
2018-03-18T15:19:48.862Z,11.53
2018-03-18T15:22:15.501Z,11.47
2018-03-18T15:24:42.480Z,11.47
2018-03-18T15:27:09.086Z,11.56
2018-03-18T15:29:35.832Z,11.57
2018-03-18T15:32:02.473Z,11.54
2018-03-18T15:34:29.303Z,11.44
2018-03-18T15:36:56.450Z,11.39
2018-03-18T15:39:23.166Z,11.27
2018-03-18T15:41:49.604Z,11.12
2018-03-18T15:44:16.386Z,10.89
2018-03-18T15:46:43.008Z,10.82
2018-03-18T15:49:09.752Z,10.95
2018-03-18T15:51:36.606Z,10.95
2018-03-18T15:54:03.424Z,10.98
2018-03-18T15:56:30.029Z,10.80
2018-03-18T15:58:56.749Z,10.67
2018-03-18T16:01:23.860Z,10.59
2018-03-18T16:03:50.530Z,10.59
2018-03-18T16:06:17.222Z,10.56
2018-03-18T16:08:43.867Z,10.42
2018-03-18T16:11:10.336Z,10.23
2018-03-18T16:13:36.751Z,10.10
2018-03-18T16:16:03.542Z,9.97
2018-03-18T16:18:30.032Z,9.80
2018-03-18T16:20:56.545Z,9.71
2018-03-18T16:23:23.143Z,9.62
2018-03-18T16:25:49.610Z,9.51
2018-03-18T16:28:16.103Z,9.51
2018-03-18T16:30:55.002Z,9.36
2018-03-18T16:33:21.587Z,9.25
2018-03-18T16:35:48.259Z,9.12
2018-03-18T16:38:14.783Z,8.99
2018-03-18T16:40:41.232Z,8.85
2018-03-18T16:43:07.746Z,8.66
2018-03-18T16:45:35.016Z,8.58
2018-03-18T16:48:02.108Z,8.45
2018-03-18T16:50:29.126Z,8.37
2018-03-18T16:52:56.272Z,8.29
2018-03-18T16:55:24.407Z,8.26
2018-03-18T16:57:51.638Z,8.22
2018-03-18T17:00:18.810Z,8.14
2018-03-18T17:02:46.587Z,8.11
2018-03-18T17:05:13.725Z,8.09
2018-03-18T17:07:40.969Z,8.04
2018-03-18T17:10:08.016Z,7.97
2018-03-18T17:12:34.981Z,7.92
2018-03-18T17:15:02.112Z,7.86
2018-03-18T17:17:29.373Z,7.73
2018-03-18T17:19:56.920Z,7.75
2018-03-18T17:22:24.169Z,7.63
2018-03-18T17:24:51.696Z,7.63
2018-03-18T17:27:19.681Z,7.71
2018-03-18T17:29:47.194Z,7.71
2018-03-18T17:32:14.414Z,7.69
2018-03-18T17:34:42.504Z,7.68
2018-03-18T17:37:10.171Z,7.67
2018-03-18T17:39:37.416Z,7.65
2018-03-18T17:42:05.277Z,7.67
2018-03-18T17:44:45.030Z,7.66
2018-03-18T17:47:24.452Z,7.63
2018-03-18T17:50:04.033Z,7.65
2018-03-18T17:52:44.663Z,7.65
2018-03-18T17:55:25.447Z,7.71
2018-03-18T17:57:53.302Z,7.72
2018-03-18T18:00:20.763Z,7.67
2018-03-18T18:02:48.066Z,7.66
2018-03-18T18:05:15.166Z,7.66
2018-03-18T18:07:42.218Z,7.64
2018-03-18T18:10:09.696Z,7.65
2018-03-18T18:12:37.437Z,7.65
2018-03-18T18:15:04.694Z,7.61
2018-03-18T18:17:32.856Z,7.56
2018-03-18T18:20:00.436Z,7.48
2018-03-18T18:22:27.888Z,7.43
2018-03-18T18:24:55.968Z,7.39
2018-03-18T18:27:23.614Z,7.39
2018-03-18T18:29:50.970Z,7.40
2018-03-18T18:32:18.430Z,7.30
2018-03-18T18:34:45.684Z,7.24
2018-03-18T18:37:13.342Z,7.21
2018-03-18T18:39:40.499Z,7.12
2018-03-18T18:42:07.875Z,7.03
2018-03-18T18:44:35.226Z,6.96
2018-03-18T18:47:03.136Z,6.84
2018-03-18T18:49:30.539Z,6.74
2018-03-18T18:51:58.511Z,6.69
2018-03-18T18:54:26.886Z,6.63
2018-03-18T18:56:54.343Z,6.58
2018-03-18T18:59:21.896Z,6.48
2018-03-18T19:01:49.500Z,6.41
2018-03-18T19:04:17.036Z,6.42
2018-03-18T19:06:44.756Z,6.50
2018-03-18T19:09:12.661Z,6.57
2018-03-18T19:11:40.124Z,6.59
2018-03-18T19:14:07.486Z,6.67
2018-03-18T19:16:34.836Z,6.72
2018-03-18T19:19:02.179Z,6.74
2018-03-18T19:21:29.234Z,6.82
2018-03-18T19:23:57.509Z,6.88
2018-03-18T19:26:24.664Z,6.91
2018-03-18T19:28:51.811Z,6.96
2018-03-18T19:31:19.163Z,6.97
2018-03-18T19:33:46.233Z,7.03
2018-03-18T19:36:13.562Z,7.02
2018-03-18T19:38:40.713Z,7.09
2018-03-18T19:41:07.970Z,7.11
2018-03-18T19:43:34.981Z,7.13
2018-03-18T19:46:02.163Z,7.22
2018-03-18T19:48:29.426Z,7.24
2018-03-18T19:50:56.770Z,7.21
2018-03-18T19:53:24.170Z,7.19
2018-03-18T19:55:51.680Z,7.16
2018-03-18T19:58:18.641Z,7.17
2018-03-18T20:00:45.917Z,7.18
2018-03-18T20:03:13.248Z,7.16
2018-03-18T20:05:55.555Z,7.21
2018-03-18T20:08:22.833Z,7.12
2018-03-18T20:10:51.175Z,7.16
2018-03-18T20:13:19.097Z,7.20
2018-03-18T20:15:47.536Z,7.21
2018-03-18T20:18:16.160Z,7.25
2018-03-18T20:20:45.720Z,7.26
2018-03-18T20:23:14.922Z,7.19
2018-03-18T20:25:42.483Z,7.19
2018-03-18T20:28:09.749Z,7.24
2018-03-18T20:30:36.986Z,7.15
2018-03-18T20:33:04.626Z,7.13
2018-03-18T20:35:32.008Z,7.16
2018-03-18T20:38:00.433Z,7.19
2018-03-18T20:40:27.487Z,7.20
2018-03-18T20:42:54.581Z,7.18
2018-03-18T20:45:21.733Z,7.14
2018-03-18T20:47:48.788Z,7.11
2018-03-18T20:50:15.927Z,7.11
2018-03-18T20:52:43.516Z,7.10
2018-03-18T20:55:10.753Z,7.05
2018-03-18T20:57:39.041Z,6.94
2018-03-18T21:00:06.076Z,6.87
2018-03-18T21:02:32.911Z,6.81
2018-03-18T21:04:59.848Z,6.80
2018-03-18T21:07:26.587Z,6.74
2018-03-18T21:09:53.428Z,6.60
2018-03-18T21:12:20.527Z,6.58
2018-03-18T21:14:47.316Z,6.50
2018-03-18T21:17:14.384Z,6.56
2018-03-18T21:19:41.204Z,6.51
2018-03-18T21:22:07.718Z,6.54
2018-03-18T21:24:34.360Z,6.55
2018-03-18T21:27:00.763Z,6.51
2018-03-18T21:29:27.440Z,6.55
2018-03-18T21:31:55.325Z,6.64
2018-03-18T21:34:34.479Z,6.59
2018-03-18T21:37:01.050Z,6.60
2018-03-18T21:39:27.446Z,6.59
2018-03-18T21:41:54.146Z,6.52
2018-03-18T21:44:20.790Z,6.54
2018-03-18T21:46:47.428Z,6.61
2018-03-18T21:49:13.955Z,6.61
2018-03-18T21:51:40.939Z,6.62
2018-03-18T21:54:07.650Z,6.63
2018-03-18T21:56:34.588Z,6.57
2018-03-18T21:59:01.309Z,6.58
2018-03-18T22:01:27.728Z,6.66
2018-03-18T22:03:54.219Z,6.70
2018-03-18T22:06:20.732Z,6.68
2018-03-18T22:08:47.378Z,6.60
2018-03-18T22:11:13.903Z,6.51
2018-03-18T22:13:40.447Z,6.49
2018-03-18T22:16:07.186Z,6.57
2018-03-18T22:18:33.614Z,6.52
2018-03-18T22:20:59.962Z,6.64
2018-03-18T22:23:26.490Z,6.52
2018-03-18T22:25:53.347Z,6.54
2018-03-18T22:28:19.740Z,6.54
2018-03-18T22:30:46.100Z,6.66
2018-03-18T22:33:13.033Z,6.53
2018-03-18T22:35:39.473Z,6.51
2018-03-18T22:38:05.858Z,6.53
2018-03-18T22:40:32.278Z,6.57
2018-03-18T22:42:58.985Z,6.61
2018-03-18T22:45:25.480Z,6.50
2018-03-18T22:47:52.051Z,6.52
2018-03-18T22:50:18.450Z,6.65
2018-03-18T22:52:44.923Z,6.53
2018-03-18T22:55:11.664Z,6.63
2018-03-18T22:57:37.977Z,6.56
2018-03-18T23:00:04.383Z,6.54
2018-03-18T23:02:30.748Z,6.67
2018-03-18T23:04:57.847Z,6.56
2018-03-18T23:07:24.757Z,6.50
2018-03-18T23:09:51.909Z,6.48
2018-03-18T23:12:18.609Z,6.45
2018-03-18T23:14:45.502Z,6.38
2018-03-18T23:17:12.715Z,6.44
2018-03-18T23:19:39.586Z,6.50
2018-03-18T23:22:06.641Z,6.51
2018-03-18T23:24:33.784Z,6.48
2018-03-18T23:27:00.625Z,6.38
2018-03-18T23:29:27.157Z,6.46
2018-03-18T23:31:55.043Z,6.54
2018-03-18T23:34:21.642Z,6.43
2018-03-18T23:36:48.197Z,6.51
2018-03-18T23:39:14.612Z,6.59
2018-03-18T23:41:41.784Z,6.51
2018-03-18T23:44:08.429Z,6.40
2018-03-18T23:46:35.026Z,6.38
2018-03-18T23:49:01.491Z,6.33
2018-03-18T23:51:28.041Z,6.28
2018-03-18T23:53:54.387Z,6.29
2018-03-18T23:56:20.903Z,6.26
2018-03-18T23:58:47.225Z,6.32
